Ana Sayfa
METAR-TAF:

METAR-TAF

Havaalanları :

Garoua, Kamerun

Enlem: 09-20N, Boylam: 013-23E, yükseklik: 242 m

Güncel hava durumu gözlemi

Rapor saat 18:00 UTC de 4 saat ve 7 dakika önce yapıldı.
Rüzgar batı/kuzeybatıdan 11 kt
Sıcaklık 31°C
Nem 59%
Basınç 1010 hPa
Görüş mesafesi 10 km veya daha fazla
2000 ft yükseklikte az bulutlu

METAR: FKKR 161800Z 29011KT 9999 FEW020 31/22 Q1010 NOSIG

Saat: 23:07 (22:07 UTC)

Tahmin

Rapor saat 05:00 UTC de 17 saat ve 7 dakika önce yapıldı.
Ayın 16'si saat 06 UTC'den ayın 16'si saat 18 UTC'ye kadar geçerli Tahmin
Rüzgar güneydan 6 kt
Görüş mesafesi 10 km veya daha fazla
1600 ft yükseklikte az bulutlu
Olasılık 30%
ayın 16'si saat 14 UTC'den ayın 16'si saat 18 UTC'ye kadar
Görüş mesafesi: 3000 m
1600 ft yükseklikte parçalı bulutlu
2000 ft yükseklikte az bulutlu, Kümülonimbus.
gök gürültülü fırtına, yağmur,

TAF: FKKR 160500Z 1606/1618 19006KT 9999 FEW016 PROB30 1614/1618 3000 TSRA SCT016 FEW020CB

4.000'den fazla havaalanı için hava durumu gözlemleri ve tahminleri (METAR ve TAF raporları).

Kullanılabilir istasyonlar harita üzerinde sarı ve kırmızı noktalarla gösterilir.

İstasyonun adını görmek için fareyi noktanın üzerinde gezdirin.

Sonrasında hava gözlem ve tahminlerini görmek için tıklayın.

Haritayı değiştirmek için: yaklaştırmak için siyah artı işaretli yeşil düğmeye ve uzaklaştırmak için de eksi işaretli düğmeye hızla tıklayın; bitişik haritalar için yeşil okları kullanın.


METAR-TAF: